createdAt,value
2023-12-13T00:01:23.824Z,6.33
2023-12-13T00:06:25.676Z,6.30
2023-12-13T00:11:27.577Z,6.28
2023-12-13T00:16:29.357Z,6.29
2023-12-13T00:21:31.426Z,6.30
2023-12-13T00:26:33.090Z,6.30
2023-12-13T00:31:34.977Z,6.33
2023-12-13T00:36:36.684Z,6.37
2023-12-13T00:41:38.479Z,6.35
2023-12-13T00:46:40.967Z,6.33
2023-12-13T00:51:42.733Z,6.29
2023-12-13T00:56:45.080Z,6.32
2023-12-13T01:01:50.531Z,6.32
2023-12-13T01:06:52.531Z,6.36
2023-12-13T01:11:54.696Z,6.34
2023-12-13T01:16:56.687Z,6.33
2023-12-13T01:21:58.805Z,6.36
2023-12-13T01:27:00.713Z,6.38
2023-12-13T01:32:03.984Z,6.40
2023-12-13T01:37:05.656Z,6.42
2023-12-13T01:42:07.463Z,6.43
2023-12-13T01:47:10.647Z,6.44
2023-12-13T01:52:13.926Z,6.44
2023-12-13T01:57:16.080Z,6.45
2023-12-13T02:02:17.919Z,6.44
2023-12-13T02:07:19.685Z,6.44
2023-12-13T02:12:21.728Z,6.45
2023-12-13T02:17:23.821Z,6.46
2023-12-13T02:22:25.644Z,6.42
2023-12-13T02:27:30.904Z,6.35
2023-12-13T02:32:33.089Z,6.31
2023-12-13T02:37:35.234Z,6.32
2023-12-13T02:42:37.184Z,6.31
2023-12-13T02:47:45.309Z,6.27
2023-12-13T02:52:47.140Z,6.25
2023-12-13T02:57:48.868Z,6.20
2023-12-13T03:02:50.626Z,6.07
2023-12-13T03:07:52.454Z,5.96
2023-12-13T03:12:54.135Z,5.88
2023-12-13T03:17:55.935Z,5.80
2023-12-13T03:22:57.971Z,5.73
2023-12-13T03:27:59.744Z,5.68
2023-12-13T03:33:01.553Z,5.67
2023-12-13T03:38:03.985Z,5.66
2023-12-13T03:43:05.712Z,5.66
2023-12-13T03:48:07.557Z,5.64
2023-12-13T03:53:09.312Z,5.64
2023-12-13T03:58:11.011Z,5.64
2023-12-13T04:03:12.879Z,5.65
2023-12-13T04:08:14.594Z,5.65
2023-12-13T04:13:16.359Z,5.66
2023-12-13T04:18:18.326Z,5.64
2023-12-13T04:23:20.056Z,5.63
2023-12-13T04:28:21.841Z,5.63
2023-12-13T04:33:23.557Z,5.63
2023-12-13T04:38:25.305Z,5.64
2023-12-13T04:43:26.989Z,5.62
2023-12-13T04:48:28.753Z,5.64
2023-12-13T04:53:30.530Z,5.65
2023-12-13T04:58:32.383Z,5.66
2023-12-13T05:03:34.552Z,5.68
2023-12-13T05:08:36.300Z,5.70
2023-12-13T05:13:38.094Z,5.71
2023-12-13T05:18:39.978Z,5.70
2023-12-13T05:23:41.710Z,5.73
2023-12-13T05:28:43.525Z,5.72
2023-12-13T05:33:45.233Z,5.73
2023-12-13T05:38:46.913Z,5.74
2023-12-13T05:43:48.689Z,5.74
2023-12-13T05:48:50.524Z,5.74
2023-12-13T05:53:52.213Z,5.73
2023-12-13T05:58:54.154Z,5.73
2023-12-13T06:03:55.970Z,5.75
2023-12-13T06:08:57.761Z,5.74
2023-12-13T06:13:59.472Z,5.77
2023-12-13T06:19:01.771Z,5.77
2023-12-13T06:24:05.094Z,5.80
2023-12-13T06:29:06.833Z,5.84
2023-12-13T06:34:08.555Z,5.86
2023-12-13T06:39:12.643Z,5.89
2023-12-13T06:44:14.540Z,5.89
2023-12-13T06:49:16.521Z,5.90
2023-12-13T06:54:18.365Z,5.91
2023-12-13T06:59:20.056Z,5.91
2023-12-13T07:04:21.935Z,5.95
2023-12-13T07:09:23.692Z,5.97
2023-12-13T07:14:25.634Z,5.99
2023-12-13T07:19:28.671Z,6.03
2023-12-13T07:24:30.547Z,6.03
2023-12-13T07:29:33.674Z,6.06
2023-12-13T07:34:35.727Z,6.10
2023-12-13T07:39:37.961Z,6.16
2023-12-13T07:44:40.322Z,6.21
2023-12-13T07:49:42.144Z,6.24
2023-12-13T07:54:44.584Z,6.30
2023-12-13T07:59:47.059Z,6.39
2023-12-13T08:04:50.362Z,6.47
2023-12-13T08:09:54.372Z,6.55
2023-12-13T08:14:56.233Z,6.64
2023-12-13T08:19:58.010Z,6.73
2023-12-13T08:24:59.708Z,6.87
2023-12-13T08:30:01.470Z,6.99
2023-12-13T08:35:03.205Z,7.06
2023-12-13T08:40:05.917Z,7.09
2023-12-13T08:45:08.333Z,7.13
2023-12-13T08:50:10.244Z,7.12
2023-12-13T08:55:12.012Z,7.19
2023-12-13T09:00:17.151Z,7.29
2023-12-13T09:05:18.911Z,7.36
2023-12-13T09:10:22.142Z,7.44
2023-12-13T09:15:23.808Z,7.49
2023-12-13T09:20:25.616Z,7.59
2023-12-13T09:25:27.539Z,7.62
2023-12-13T09:30:29.322Z,7.59
2023-12-13T09:35:31.084Z,7.54
2023-12-13T09:40:33.476Z,7.54
2023-12-13T09:45:37.079Z,7.56
2023-12-13T09:50:40.378Z,7.63
2023-12-13T09:55:42.324Z,7.78
2023-12-13T10:00:47.253Z,7.84
2023-12-13T10:05:49.816Z,7.99
2023-12-13T10:10:51.623Z,8.12
2023-12-13T10:15:53.460Z,8.28
2023-12-13T10:20:55.203Z,8.44
2023-12-13T10:25:56.962Z,8.61
2023-12-13T10:30:58.666Z,8.74
2023-12-13T10:36:00.853Z,8.88
2023-12-13T10:41:03.333Z,9.07
2023-12-13T10:46:05.790Z,9.28
2023-12-13T10:51:08.152Z,9.51
2023-12-13T10:56:10.846Z,9.48
2023-12-13T11:01:13.410Z,9.48
2023-12-13T11:06:17.737Z,9.59
2023-12-13T11:11:19.852Z,9.64
2023-12-13T11:16:22.686Z,9.81
2023-12-13T11:21:31.214Z,9.98
2023-12-13T11:26:33.938Z,10.22
2023-12-13T11:31:35.674Z,10.33
2023-12-13T11:36:39.527Z,10.40
2023-12-13T11:41:41.619Z,10.34
2023-12-13T11:46:43.380Z,10.38
2023-12-13T11:51:45.109Z,10.34
2023-12-13T11:56:47.042Z,10.42
2023-12-13T12:01:49.401Z,10.61
2023-12-13T12:06:53.974Z,10.84
2023-12-13T12:11:56.039Z,10.75
2023-12-13T12:17:00.594Z,10.73
2023-12-13T12:22:05.917Z,10.61
2023-12-13T12:27:11.802Z,10.41
2023-12-13T12:32:13.664Z,10.26
2023-12-13T12:37:18.162Z,10.17
2023-12-13T12:42:20.914Z,10.15
2023-12-13T12:47:22.732Z,10.24
2023-12-13T12:52:24.453Z,10.34
2023-12-13T12:57:26.415Z,10.34
2023-12-13T13:02:28.904Z,10.18
2023-12-13T13:07:30.855Z,9.91
2023-12-13T13:12:33.062Z,9.67
2023-12-13T13:17:35.306Z,9.57
2023-12-13T13:22:37.998Z,9.56
2023-12-13T13:27:40.485Z,9.59
2023-12-13T13:32:43.109Z,9.57
2023-12-13T13:37:45.081Z,9.49
2023-12-13T13:42:46.858Z,9.36
2023-12-13T13:47:48.977Z,9.31
2023-12-13T13:52:50.771Z,9.28
2023-12-13T13:57:52.503Z,9.20
2023-12-13T14:02:54.411Z,9.09
2023-12-13T14:07:56.870Z,9.00
2023-12-13T14:12:58.622Z,8.99
2023-12-13T14:18:03.476Z,8.97
2023-12-13T14:23:07.071Z,8.97
2023-12-13T14:28:09.094Z,9.04
2023-12-13T14:33:10.998Z,8.98
2023-12-13T14:38:12.889Z,8.90
2023-12-13T14:43:14.935Z,8.84
2023-12-13T14:48:17.040Z,8.77
2023-12-13T14:53:19.083Z,8.73
2023-12-13T14:58:20.920Z,8.74
2023-12-13T15:03:22.709Z,8.73
2023-12-13T15:08:24.425Z,8.66
2023-12-13T15:13:29.054Z,8.53
2023-12-13T15:18:30.930Z,8.36
2023-12-13T15:23:32.794Z,8.18
2023-12-13T15:28:37.239Z,7.99
2023-12-13T15:33:39.634Z,7.81
2023-12-13T15:38:41.906Z,7.69
2023-12-13T15:43:48.163Z,7.67
2023-12-13T15:48:50.130Z,7.71
2023-12-13T15:53:51.993Z,7.81
2023-12-13T15:58:53.829Z,7.96
2023-12-13T16:03:56.460Z,7.98
2023-12-13T16:08:58.281Z,7.99
2023-12-13T16:14:00.313Z,7.95
2023-12-13T16:19:02.166Z,7.89
2023-12-13T16:24:04.285Z,7.86
2023-12-13T16:29:14.015Z,7.79
2023-12-13T16:34:23.231Z,7.75
2023-12-13T16:39:25.030Z,7.72
2023-12-13T16:44:26.930Z,7.65
2023-12-13T16:49:28.864Z,7.62
2023-12-13T16:54:30.603Z,7.52
2023-12-13T16:59:32.276Z,7.39
2023-12-13T17:04:34.374Z,7.31
2023-12-13T17:09:36.087Z,7.25
2023-12-13T17:14:37.821Z,7.20
2023-12-13T17:19:42.939Z,7.13
2023-12-13T17:24:44.669Z,7.06
2023-12-13T17:29:47.338Z,7.04
2023-12-13T17:34:49.243Z,7.03
2023-12-13T17:39:51.186Z,7.01
2023-12-13T17:44:52.867Z,6.99
2023-12-13T17:49:55.225Z,6.94
2023-12-13T17:54:57.322Z,6.91
2023-12-13T17:59:59.828Z,6.92
2023-12-13T18:05:02.034Z,6.93
2023-12-13T18:10:05.972Z,6.91
2023-12-13T18:15:08.515Z,6.89
2023-12-13T18:20:10.662Z,6.86
2023-12-13T18:25:13.051Z,6.83
2023-12-13T18:30:14.991Z,6.78
2023-12-13T18:35:16.813Z,6.74
2023-12-13T18:40:20.087Z,6.70
2023-12-13T18:45:21.768Z,6.65
2023-12-13T18:50:23.529Z,6.64
2023-12-13T18:55:25.309Z,6.65
2023-12-13T19:00:27.158Z,6.65
2023-12-13T19:05:28.999Z,6.65
2023-12-13T19:10:30.872Z,6.65
2023-12-13T19:15:32.714Z,6.61
2023-12-13T19:20:34.876Z,6.57
2023-12-13T19:25:36.619Z,6.51
2023-12-13T19:30:38.327Z,6.49
2023-12-13T19:35:40.500Z,6.45
2023-12-13T19:40:42.716Z,6.46
2023-12-13T19:45:44.447Z,6.38
2023-12-13T19:50:46.295Z,6.32
2023-12-13T19:55:48.206Z,6.34
2023-12-13T20:00:49.966Z,6.39
2023-12-13T20:05:51.717Z,6.42
2023-12-13T20:10:53.543Z,6.43
2023-12-13T20:15:55.403Z,6.43
2023-12-13T20:20:58.031Z,6.44
2023-12-13T20:26:02.262Z,6.45
2023-12-13T20:31:04.958Z,6.47
2023-12-13T20:36:08.951Z,6.48
2023-12-13T20:41:10.775Z,6.51
2023-12-13T20:46:12.595Z,6.52
2023-12-13T20:51:14.469Z,6.50
2023-12-13T20:56:19.220Z,6.43
2023-12-13T21:01:21.077Z,6.39
2023-12-13T21:06:22.867Z,6.30
2023-12-13T21:11:25.186Z,6.26
2023-12-13T21:16:26.987Z,6.21
2023-12-13T21:21:28.694Z,6.21
2023-12-13T21:26:30.465Z,6.18
2023-12-13T21:31:37.971Z,6.20
2023-12-13T21:36:44.553Z,6.19
2023-12-13T21:41:46.223Z,6.21
2023-12-13T21:46:48.607Z,6.20
2023-12-13T21:51:50.366Z,6.18
2023-12-13T21:56:52.125Z,6.16
2023-12-13T22:01:56.558Z,6.14
2023-12-13T22:06:58.327Z,6.11
2023-12-13T22:11:59.988Z,6.08
2023-12-13T22:17:01.741Z,6.06
2023-12-13T22:22:05.359Z,6.02
2023-12-13T22:27:07.099Z,5.99
2023-12-13T22:32:09.018Z,6.00
2023-12-13T22:37:10.819Z,6.00
2023-12-13T22:42:12.520Z,5.95
2023-12-13T22:47:14.411Z,5.90
2023-12-13T22:52:21.521Z,5.83
2023-12-13T22:57:26.543Z,5.76
2023-12-13T23:02:28.789Z,5.75
2023-12-13T23:07:31.852Z,5.71
2023-12-13T23:12:34.112Z,5.68
2023-12-13T23:17:36.783Z,5.65
2023-12-13T23:22:38.830Z,5.65
2023-12-13T23:27:40.695Z,5.66
2023-12-13T23:32:42.481Z,5.63
2023-12-13T23:37:44.447Z,5.63
2023-12-13T23:42:46.127Z,5.60
2023-12-13T23:47:48.067Z,5.58
2023-12-13T23:52:50.050Z,5.58
2023-12-13T23:57:51.840Z,5.55
